Akra, North Dakota
Current Conditions -  °F | °C
As of 1:15 AM on Sunday 23 Nov 2014 (Local Time) from K2C8 Reporting Station
Haze Haze  
Wind Chill: 24°   Ceiling: Unl
Heat Index: 32°   Visibility: 5mi
Dew Point: 30°   Wind: 10mph
Humidity: 93%   Direction: 170°S
Pressure: 29.31"   Gusts: NA
Location:  48.8218°N, 97.697°W
Report Text: K2C8 230715Z AUTO 17009KT 5SM BR FEW100 00/M01 A2931 RMK AO2
Loading
Personal Weather Stations






























Interactive Weather Map New forecast layout! Learn more

10-Day Weather Forecast

Advertisements
Track Severe Weather on mobile